sensor_id;sensor_type;location;lat;lon;timestamp;P1;durP1;ratioP1;P2;durP2;ratioP2
4957;SDS011;2494;51.872;9.688;2023-04-24T00:00:54;1.80;;;1.70;;
4957;SDS011;2494;51.872;9.688;2023-04-24T00:03:41;1.97;;;1.60;;
4957;SDS011;2494;51.872;9.688;2023-04-24T00:06:26;1.83;;;1.73;;
4957;SDS011;2494;51.872;9.688;2023-04-24T00:09:16;2.07;;;1.93;;
4957;SDS011;2494;51.872;9.688;2023-04-24T00:12:01;2.57;;;1.70;;
4957;SDS011;2494;51.872;9.688;2023-04-24T00:14:48;8.17;;;1.80;;
4957;SDS011;2494;51.872;9.688;2023-04-24T00:17:33;2.30;;;2.00;;
4957;SDS011;2494;51.872;9.688;2023-04-24T00:20:19;1.97;;;1.50;;
4957;SDS011;2494;51.872;9.688;2023-04-24T00:23:04;1.80;;;1.70;;
4957;SDS011;2494;51.872;9.688;2023-04-24T00:25:49;1.70;;;1.60;;
4957;SDS011;2494;51.872;9.688;2023-04-24T00:28:36;1.60;;;1.50;;
4957;SDS011;2494;51.872;9.688;2023-04-24T00:31:20;3.07;;;1.70;;
4957;SDS011;2494;51.872;9.688;2023-04-24T00:34:05;1.70;;;1.60;;
4957;SDS011;2494;51.872;9.688;2023-04-24T00:36:52;1.67;;;1.57;;
4957;SDS011;2494;51.872;9.688;2023-04-24T00:39:38;1.63;;;1.53;;
4957;SDS011;2494;51.872;9.688;2023-04-24T00:42:23;2.53;;;1.73;;
4957;SDS011;2494;51.872;9.688;2023-04-24T00:45:09;1.80;;;1.70;;
4957;SDS011;2494;51.872;9.688;2023-04-24T00:47:54;1.40;;;1.30;;
4957;SDS011;2494;51.872;9.688;2023-04-24T00:50:39;1.60;;;1.50;;
4957;SDS011;2494;51.872;9.688;2023-04-24T00:53:25;1.83;;;1.53;;
4957;SDS011;2494;51.872;9.688;2023-04-24T00:56:10;1.33;;;1.23;;
4957;SDS011;2494;51.872;9.688;2023-04-24T00:58:55;2.80;;;1.90;;
4957;SDS011;2494;51.872;9.688;2023-04-24T01:01:41;1.70;;;1.60;;
4957;SDS011;2494;51.872;9.688;2023-04-24T01:04:26;2.17;;;1.53;;
4957;SDS011;2494;51.872;9.688;2023-04-24T01:07:12;1.77;;;1.67;;
4957;SDS011;2494;51.872;9.688;2023-04-24T01:09:58;1.70;;;1.43;;
4957;SDS011;2494;51.872;9.688;2023-04-24T01:12:43;2.50;;;1.43;;
4957;SDS011;2494;51.872;9.688;2023-04-24T01:15:29;1.57;;;1.47;;
4957;SDS011;2494;51.872;9.688;2023-04-24T01:18:14;1.60;;;1.50;;
4957;SDS011;2494;51.872;9.688;2023-04-24T01:20:59;1.97;;;1.40;;
4957;SDS011;2494;51.872;9.688;2023-04-24T01:23:47;1.50;;;1.40;;
4957;SDS011;2494;51.872;9.688;2023-04-24T01:26:32;2.00;;;1.20;;
4957;SDS011;2494;51.872;9.688;2023-04-24T01:29:18;1.83;;;1.47;;
4957;SDS011;2494;51.872;9.688;2023-04-24T01:32:03;1.20;;;1.10;;
4957;SDS011;2494;51.872;9.688;2023-04-24T01:34:48;1.20;;;1.10;;
4957;SDS011;2494;51.872;9.688;2023-04-24T01:37:34;2.10;;;1.77;;
4957;SDS011;2494;51.872;9.688;2023-04-24T01:40:23;1.30;;;1.20;;
4957;SDS011;2494;51.872;9.688;2023-04-24T01:43:08;1.20;;;1.10;;
4957;SDS011;2494;51.872;9.688;2023-04-24T01:45:53;1.20;;;1.10;;
4957;SDS011;2494;51.872;9.688;2023-04-24T01:48:38;2.90;;;1.20;;
4957;SDS011;2494;51.872;9.688;2023-04-24T01:51:23;1.33;;;1.23;;
4957;SDS011;2494;51.872;9.688;2023-04-24T01:54:08;1.13;;;1.03;;
4957;SDS011;2494;51.872;9.688;2023-04-24T01:56:54;1.30;;;1.20;;
4957;SDS011;2494;51.872;9.688;2023-04-24T01:59:39;1.63;;;1.27;;
4957;SDS011;2494;51.872;9.688;2023-04-24T02:02:25;1.20;;;1.10;;
4957;SDS011;2494;51.872;9.688;2023-04-24T02:05:11;1.73;;;1.20;;
4957;SDS011;2494;51.872;9.688;2023-04-24T02:07:55;1.17;;;1.07;;
4957;SDS011;2494;51.872;9.688;2023-04-24T02:10:40;1.77;;;1.20;;
4957;SDS011;2494;51.872;9.688;2023-04-24T02:13:27;2.53;;;1.23;;
4957;SDS011;2494;51.872;9.688;2023-04-24T02:16:12;0.80;;;0.77;;
4957;SDS011;2494;51.872;9.688;2023-04-24T02:18:57;1.10;;;1.00;;
4957;SDS011;2494;51.872;9.688;2023-04-24T02:21:42;1.30;;;1.20;;
4957;SDS011;2494;51.872;9.688;2023-04-24T02:24:27;1.00;;;0.90;;
4957;SDS011;2494;51.872;9.688;2023-04-24T02:27:11;1.00;;;0.90;;
4957;SDS011;2494;51.872;9.688;2023-04-24T02:29:58;1.10;;;1.00;;
4957;SDS011;2494;51.872;9.688;2023-04-24T02:32:43;1.03;;;0.90;;
4957;SDS011;2494;51.872;9.688;2023-04-24T02:35:28;1.23;;;0.90;;
4957;SDS011;2494;51.872;9.688;2023-04-24T02:38:13;1.50;;;1.00;;
4957;SDS011;2494;51.872;9.688;2023-04-24T02:40:58;1.13;;;1.03;;
4957;SDS011;2494;51.872;9.688;2023-04-24T02:43:44;1.10;;;1.00;;
4957;SDS011;2494;51.872;9.688;2023-04-24T02:46:30;0.70;;;0.70;;
4957;SDS011;2494;51.872;9.688;2023-04-24T02:49:15;1.20;;;1.00;;
4957;SDS011;2494;51.872;9.688;2023-04-24T02:52:00;1.10;;;1.00;;
4957;SDS011;2494;51.872;9.688;2023-04-24T02:54:45;1.20;;;1.10;;
4957;SDS011;2494;51.872;9.688;2023-04-24T02:57:30;4.07;;;0.97;;
4957;SDS011;2494;51.872;9.688;2023-04-24T03:00:15;1.00;;;0.80;;
4957;SDS011;2494;51.872;9.688;2023-04-24T03:03:02;1.20;;;0.90;;
4957;SDS011;2494;51.872;9.688;2023-04-24T03:05:47;1.03;;;0.97;;
4957;SDS011;2494;51.872;9.688;2023-04-24T03:08:32;0.90;;;0.87;;
4957;SDS011;2494;51.872;9.688;2023-04-24T03:11:17;2.60;;;1.03;;
4957;SDS011;2494;51.872;9.688;2023-04-24T03:14:02;1.07;;;0.97;;
4957;SDS011;2494;51.872;9.688;2023-04-24T03:16:46;1.50;;;1.40;;
4957;SDS011;2494;51.872;9.688;2023-04-24T03:19:33;1.43;;;1.33;;
4957;SDS011;2494;51.872;9.688;2023-04-24T03:22:18;2.23;;;1.93;;
4957;SDS011;2494;51.872;9.688;2023-04-24T03:25:03;4.53;;;1.30;;
4957;SDS011;2494;51.872;9.688;2023-04-24T03:27:49;1.10;;;1.00;;
4957;SDS011;2494;51.872;9.688;2023-04-24T03:30:34;1.20;;;1.10;;
4957;SDS011;2494;51.872;9.688;2023-04-24T03:33:19;1.47;;;0.80;;
4957;SDS011;2494;51.872;9.688;2023-04-24T03:36:06;1.30;;;1.20;;
4957;SDS011;2494;51.872;9.688;2023-04-24T03:38:50;1.47;;;1.03;;
4957;SDS011;2494;51.872;9.688;2023-04-24T03:41:35;1.30;;;1.20;;
4957;SDS011;2494;51.872;9.688;2023-04-24T03:44:20;1.10;;;0.90;;
4957;SDS011;2494;51.872;9.688;2023-04-24T03:47:05;1.23;;;1.13;;
4957;SDS011;2494;51.872;9.688;2023-04-24T03:49:50;2.43;;;1.07;;
4957;SDS011;2494;51.872;9.688;2023-04-24T03:52:37;2.00;;;1.23;;
4957;SDS011;2494;51.872;9.688;2023-04-24T03:55:22;1.93;;;1.03;;
4957;SDS011;2494;51.872;9.688;2023-04-24T03:58:07;3.13;;;1.00;;
4957;SDS011;2494;51.872;9.688;2023-04-24T04:00:52;1.17;;;1.07;;
4957;SDS011;2494;51.872;9.688;2023-04-24T04:03:37;1.53;;;1.00;;
4957;SDS011;2494;51.872;9.688;2023-04-24T04:06:22;1.93;;;1.20;;
4957;SDS011;2494;51.872;9.688;2023-04-24T04:09:08;1.30;;;1.20;;
4957;SDS011;2494;51.872;9.688;2023-04-24T04:11:53;1.70;;;1.43;;
4957;SDS011;2494;51.872;9.688;2023-04-24T04:14:38;1.60;;;1.17;;
4957;SDS011;2494;51.872;9.688;2023-04-24T04:17:23;1.57;;;1.20;;
4957;SDS011;2494;51.872;9.688;2023-04-24T04:20:08;2.20;;;1.00;;
4957;SDS011;2494;51.872;9.688;2023-04-24T04:22:54;1.20;;;1.10;;
4957;SDS011;2494;51.872;9.688;2023-04-24T04:25:40;1.27;;;1.00;;
4957;SDS011;2494;51.872;9.688;2023-04-24T04:28:25;1.47;;;1.10;;
4957;SDS011;2494;51.872;9.688;2023-04-24T04:31:11;1.20;;;1.10;;
4957;SDS011;2494;51.872;9.688;2023-04-24T04:33:56;1.40;;;1.30;;
4957;SDS011;2494;51.872;9.688;2023-04-24T04:36:42;1.60;;;1.50;;
4957;SDS011;2494;51.872;9.688;2023-04-24T04:39:28;1.50;;;1.40;;
4957;SDS011;2494;51.872;9.688;2023-04-24T04:42:16;3.20;;;2.03;;
4957;SDS011;2494;51.872;9.688;2023-04-24T04:45:02;1.80;;;1.70;;
4957;SDS011;2494;51.872;9.688;2023-04-24T04:47:48;1.90;;;1.70;;
4957;SDS011;2494;51.872;9.688;2023-04-24T04:50:32;1.20;;;1.10;;
4957;SDS011;2494;51.872;9.688;2023-04-24T04:53:17;1.03;;;0.90;;
4957;SDS011;2494;51.872;9.688;2023-04-24T04:56:03;0.73;;;0.73;;
4957;SDS011;2494;51.872;9.688;2023-04-24T04:58:49;1.27;;;0.70;;
4957;SDS011;2494;51.872;9.688;2023-04-24T05:01:34;0.80;;;0.80;;
4957;SDS011;2494;51.872;9.688;2023-04-24T05:04:20;2.50;;;0.63;;
4957;SDS011;2494;51.872;9.688;2023-04-24T05:07:04;0.90;;;0.70;;
4957;SDS011;2494;51.872;9.688;2023-04-24T05:09:49;0.80;;;0.80;;
4957;SDS011;2494;51.872;9.688;2023-04-24T05:12:35;0.80;;;0.70;;
4957;SDS011;2494;51.872;9.688;2023-04-24T05:15:21;0.90;;;0.80;;
4957;SDS011;2494;51.872;9.688;2023-04-24T05:18:06;0.80;;;0.80;;
4957;SDS011;2494;51.872;9.688;2023-04-24T05:20:51;1.00;;;0.90;;
4957;SDS011;2494;51.872;9.688;2023-04-24T05:23:36;1.17;;;0.90;;
4957;SDS011;2494;51.872;9.688;2023-04-24T05:26:21;1.97;;;0.80;;
4957;SDS011;2494;51.872;9.688;2023-04-24T05:29:06;1.00;;;0.90;;
4957;SDS011;2494;51.872;9.688;2023-04-24T05:31:53;0.93;;;0.93;;
4957;SDS011;2494;51.872;9.688;2023-04-24T05:34:38;1.23;;;1.00;;
4957;SDS011;2494;51.872;9.688;2023-04-24T05:37:23;1.17;;;0.90;;
4957;SDS011;2494;51.872;9.688;2023-04-24T05:40:09;1.00;;;1.00;;
4957;SDS011;2494;51.872;9.688;2023-04-24T05:42:54;0.93;;;0.90;;
4957;SDS011;2494;51.872;9.688;2023-04-24T05:45:39;0.90;;;0.90;;
4957;SDS011;2494;51.872;9.688;2023-04-24T05:48:25;1.10;;;1.00;;
4957;SDS011;2494;51.872;9.688;2023-04-24T05:51:10;1.30;;;1.03;;
4957;SDS011;2494;51.872;9.688;2023-04-24T05:53:55;2.17;;;1.20;;
4957;SDS011;2494;51.872;9.688;2023-04-24T05:56:40;1.27;;;1.17;;
4957;SDS011;2494;51.872;9.688;2023-04-24T05:59:25;1.27;;;1.17;;
4957;SDS011;2494;51.872;9.688;2023-04-24T06:02:10;1.40;;;1.30;;
4957;SDS011;2494;51.872;9.688;2023-04-24T06:04:56;1.17;;;1.07;;
4957;SDS011;2494;51.872;9.688;2023-04-24T06:07:42;1.20;;;1.10;;
4957;SDS011;2494;51.872;9.688;2023-04-24T06:10:28;2.63;;;1.90;;
4957;SDS011;2494;51.872;9.688;2023-04-24T06:13:13;1.30;;;1.20;;
4957;SDS011;2494;51.872;9.688;2023-04-24T06:15:58;1.83;;;1.73;;
4957;SDS011;2494;51.872;9.688;2023-04-24T06:18:43;2.10;;;1.83;;
4957;SDS011;2494;51.872;9.688;2023-04-24T06:21:32;1.80;;;1.70;;
4957;SDS011;2494;51.872;9.688;2023-04-24T06:24:17;2.40;;;2.20;;
4957;SDS011;2494;51.872;9.688;2023-04-24T06:27:02;3.23;;;2.13;;
4957;SDS011;2494;51.872;9.688;2023-04-24T06:29:46;1.80;;;1.70;;
4957;SDS011;2494;51.872;9.688;2023-04-24T06:32:38;2.03;;;1.93;;
4957;SDS011;2494;51.872;9.688;2023-04-24T06:35:23;2.10;;;1.90;;
4957;SDS011;2494;51.872;9.688;2023-04-24T06:38:09;2.00;;;1.87;;
4957;SDS011;2494;51.872;9.688;2023-04-24T06:40:54;2.00;;;1.90;;
4957;SDS011;2494;51.872;9.688;2023-04-24T06:43:39;2.73;;;2.53;;
4957;SDS011;2494;51.872;9.688;2023-04-24T06:46:25;2.50;;;2.30;;
4957;SDS011;2494;51.872;9.688;2023-04-24T06:49:11;2.30;;;2.10;;
4957;SDS011;2494;51.872;9.688;2023-04-24T06:51:56;2.30;;;2.10;;
4957;SDS011;2494;51.872;9.688;2023-04-24T06:54:42;1.90;;;1.80;;
4957;SDS011;2494;51.872;9.688;2023-04-24T06:57:27;2.30;;;2.10;;
4957;SDS011;2494;51.872;9.688;2023-04-24T07:00:12;1.90;;;1.53;;
4957;SDS011;2494;51.872;9.688;2023-04-24T07:02:57;2.70;;;1.80;;
4957;SDS011;2494;51.872;9.688;2023-04-24T07:05:42;1.93;;;1.83;;
4957;SDS011;2494;51.872;9.688;2023-04-24T07:08:27;2.40;;;1.97;;
4957;SDS011;2494;51.872;9.688;2023-04-24T07:11:15;2.23;;;1.90;;
4957;SDS011;2494;51.872;9.688;2023-04-24T07:14:00;1.70;;;1.50;;
4957;SDS011;2494;51.872;9.688;2023-04-24T07:16:45;1.70;;;1.60;;
4957;SDS011;2494;51.872;9.688;2023-04-24T07:19:30;1.80;;;1.70;;
4957;SDS011;2494;51.872;9.688;2023-04-24T07:22:15;1.80;;;1.70;;
4957;SDS011;2494;51.872;9.688;2023-04-24T07:25:00;2.37;;;2.17;;
4957;SDS011;2494;51.872;9.688;2023-04-24T07:27:47;2.10;;;2.00;;
4957;SDS011;2494;51.872;9.688;2023-04-24T07:30:32;2.10;;;2.00;;
4957;SDS011;2494;51.872;9.688;2023-04-24T07:33:17;2.67;;;2.47;;
4957;SDS011;2494;51.872;9.688;2023-04-24T07:36:02;2.10;;;2.00;;
4957;SDS011;2494;51.872;9.688;2023-04-24T07:38:48;5.07;;;2.80;;
4957;SDS011;2494;51.872;9.688;2023-04-24T07:41:33;2.30;;;2.20;;
4957;SDS011;2494;51.872;9.688;2023-04-24T07:44:19;2.83;;;2.60;;
4957;SDS011;2494;51.872;9.688;2023-04-24T07:47:04;2.43;;;2.33;;
4957;SDS011;2494;51.872;9.688;2023-04-24T07:49:49;4.90;;;2.20;;
4957;SDS011;2494;51.872;9.688;2023-04-24T07:52:34;2.83;;;2.43;;
4957;SDS011;2494;51.872;9.688;2023-04-24T07:55:19;3.47;;;3.17;;
4957;SDS011;2494;51.872;9.688;2023-04-24T07:58:04;2.83;;;2.70;;
4957;SDS011;2494;51.872;9.688;2023-04-24T08:00:50;3.20;;;2.27;;
4957;SDS011;2494;51.872;9.688;2023-04-24T08:03:35;2.80;;;2.60;;
4957;SDS011;2494;51.872;9.688;2023-04-24T08:06:20;2.40;;;2.20;;
4957;SDS011;2494;51.872;9.688;2023-04-24T08:09:05;7.00;;;3.13;;
4957;SDS011;2494;51.872;9.688;2023-04-24T08:11:50;2.93;;;2.73;;
4957;SDS011;2494;51.872;9.688;2023-04-24T08:14:35;2.83;;;2.43;;
4957;SDS011;2494;51.872;9.688;2023-04-24T08:17:21;4.17;;;2.80;;
4957;SDS011;2494;51.872;9.688;2023-04-24T08:20:07;3.10;;;2.90;;
4957;SDS011;2494;51.872;9.688;2023-04-24T08:22:57;2.80;;;2.60;;
4957;SDS011;2494;51.872;9.688;2023-04-24T08:25:42;2.40;;;2.30;;
4957;SDS011;2494;51.872;9.688;2023-04-24T08:28:27;2.37;;;2.20;;
4957;SDS011;2494;51.872;9.688;2023-04-24T08:31:11;2.40;;;2.30;;
4957;SDS011;2494;51.872;9.688;2023-04-24T08:33:58;2.80;;;2.60;;
4957;SDS011;2494;51.872;9.688;2023-04-24T08:36:43;5.50;;;3.00;;
4957;SDS011;2494;51.872;9.688;2023-04-24T08:39:28;3.33;;;3.03;;
4957;SDS011;2494;51.872;9.688;2023-04-24T08:42:13;4.23;;;2.37;;
4957;SDS011;2494;51.872;9.688;2023-04-24T08:44:59;2.40;;;2.20;;
4957;SDS011;2494;51.872;9.688;2023-04-24T08:47:44;2.33;;;2.23;;
4957;SDS011;2494;51.872;9.688;2023-04-24T08:50:31;4.93;;;2.30;;
4957;SDS011;2494;51.872;9.688;2023-04-24T08:53:16;2.93;;;2.73;;
4957;SDS011;2494;51.872;9.688;2023-04-24T08:56:02;2.80;;;2.60;;
4957;SDS011;2494;51.872;9.688;2023-04-24T08:58:47;2.50;;;2.30;;
4957;SDS011;2494;51.872;9.688;2023-04-24T09:01:32;2.37;;;2.27;;
4957;SDS011;2494;51.872;9.688;2023-04-24T09:04:18;2.20;;;2.10;;
4957;SDS011;2494;51.872;9.688;2023-04-24T09:07:07;1.83;;;1.73;;
4957;SDS011;2494;51.872;9.688;2023-04-24T09:09:53;2.40;;;2.20;;
4957;SDS011;2494;51.872;9.688;2023-04-24T09:12:38;3.73;;;2.30;;
4957;SDS011;2494;51.872;9.688;2023-04-24T09:15:24;2.70;;;2.50;;
4957;SDS011;2494;51.872;9.688;2023-04-24T09:18:09;2.60;;;2.40;;
4957;SDS011;2494;51.872;9.688;2023-04-24T09:20:57;2.03;;;1.90;;
4957;SDS011;2494;51.872;9.688;2023-04-24T09:23:44;2.50;;;2.30;;
4957;SDS011;2494;51.872;9.688;2023-04-24T09:26:29;2.10;;;2.00;;
4957;SDS011;2494;51.872;9.688;2023-04-24T09:29:16;2.30;;;2.10;;
4957;SDS011;2494;51.872;9.688;2023-04-24T09:32:11;2.47;;;2.27;;
4957;SDS011;2494;51.872;9.688;2023-04-24T09:35:06;2.40;;;2.20;;
4957;SDS011;2494;51.872;9.688;2023-04-24T09:37:51;2.47;;;2.33;;
4957;SDS011;2494;51.872;9.688;2023-04-24T09:40:38;3.10;;;2.90;;
4957;SDS011;2494;51.872;9.688;2023-04-24T09:43:25;3.30;;;2.87;;
4957;SDS011;2494;51.872;9.688;2023-04-24T09:46:11;3.23;;;2.50;;
4957;SDS011;2494;51.872;9.688;2023-04-24T09:48:57;7.80;;;3.60;;
4957;SDS011;2494;51.872;9.688;2023-04-24T09:51:42;3.00;;;2.80;;
4957;SDS011;2494;51.872;9.688;2023-04-24T09:54:27;3.33;;;3.13;;
4957;SDS011;2494;51.872;9.688;2023-04-24T09:57:14;3.10;;;2.90;;
4957;SDS011;2494;51.872;9.688;2023-04-24T09:59:59;2.73;;;2.53;;
4957;SDS011;2494;51.872;9.688;2023-04-24T10:02:44;2.40;;;2.30;;
4957;SDS011;2494;51.872;9.688;2023-04-24T10:05:29;2.57;;;2.37;;
4957;SDS011;2494;51.872;9.688;2023-04-24T10:08:15;2.27;;;2.17;;
4957;SDS011;2494;51.872;9.688;2023-04-24T10:11:00;2.17;;;2.07;;
4957;SDS011;2494;51.872;9.688;2023-04-24T10:13:47;2.60;;;2.43;;
4957;SDS011;2494;51.872;9.688;2023-04-24T10:16:32;1.80;;;1.70;;
4957;SDS011;2494;51.872;9.688;2023-04-24T10:19:17;10.37;;;3.17;;
4957;SDS011;2494;51.872;9.688;2023-04-24T10:22:03;2.27;;;2.07;;
4957;SDS011;2494;51.872;9.688;2023-04-24T10:24:49;2.07;;;1.97;;
4957;SDS011;2494;51.872;9.688;2023-04-24T10:27:35;2.40;;;2.20;;
4957;SDS011;2494;51.872;9.688;2023-04-24T10:30:21;4.27;;;1.83;;
4957;SDS011;2494;51.872;9.688;2023-04-24T10:33:07;1.90;;;1.80;;
4957;SDS011;2494;51.872;9.688;2023-04-24T10:35:52;1.57;;;1.47;;
4957;SDS011;2494;51.872;9.688;2023-04-24T10:38:38;1.93;;;1.83;;
4957;SDS011;2494;51.872;9.688;2023-04-24T10:41:25;1.97;;;1.70;;
4957;SDS011;2494;51.872;9.688;2023-04-24T10:44:11;2.40;;;2.20;;
4957;SDS011;2494;51.872;9.688;2023-04-24T10:46:58;2.27;;;2.07;;
4957;SDS011;2494;51.872;9.688;2023-04-24T10:49:43;2.00;;;1.90;;
4957;SDS011;2494;51.872;9.688;2023-04-24T10:52:43;2.20;;;2.10;;
4957;SDS011;2494;51.872;9.688;2023-04-24T10:55:40;2.30;;;2.20;;
4957;SDS011;2494;51.872;9.688;2023-04-24T10:58:35;2.87;;;1.80;;
4957;SDS011;2494;51.872;9.688;2023-04-24T11:01:24;2.30;;;2.10;;
4957;SDS011;2494;51.872;9.688;2023-04-24T11:04:11;3.73;;;1.60;;
4957;SDS011;2494;51.872;9.688;2023-04-24T11:06:56;1.97;;;1.60;;
4957;SDS011;2494;51.872;9.688;2023-04-24T11:09:42;2.40;;;2.30;;
4957;SDS011;2494;51.872;9.688;2023-04-24T11:12:27;2.10;;;2.00;;
4957;SDS011;2494;51.872;9.688;2023-04-24T11:15:12;2.53;;;2.00;;
4957;SDS011;2494;51.872;9.688;2023-04-24T11:18:01;2.00;;;1.90;;
4957;SDS011;2494;51.872;9.688;2023-04-24T11:20:47;2.27;;;2.17;;
4957;SDS011;2494;51.872;9.688;2023-04-24T11:23:35;2.93;;;2.23;;
4957;SDS011;2494;51.872;9.688;2023-04-24T11:26:21;2.10;;;1.90;;
4957;SDS011;2494;51.872;9.688;2023-04-24T11:29:08;2.07;;;1.97;;
4957;SDS011;2494;51.872;9.688;2023-04-24T11:31:53;1.87;;;1.77;;
4957;SDS011;2494;51.872;9.688;2023-04-24T11:34:38;1.37;;;1.27;;
4957;SDS011;2494;51.872;9.688;2023-04-24T11:37:26;1.27;;;1.10;;
4957;SDS011;2494;51.872;9.688;2023-04-24T11:40:12;1.30;;;1.20;;
4957;SDS011;2494;51.872;9.688;2023-04-24T11:42:59;1.13;;;1.03;;
4957;SDS011;2494;51.872;9.688;2023-04-24T11:45:47;1.20;;;1.10;;
4957;SDS011;2494;51.872;9.688;2023-04-24T11:48:34;1.23;;;1.00;;
4957;SDS011;2494;51.872;9.688;2023-04-24T11:51:20;1.67;;;1.00;;
4957;SDS011;2494;51.872;9.688;2023-04-24T11:54:07;1.10;;;0.90;;
4957;SDS011;2494;51.872;9.688;2023-04-24T11:56:52;1.40;;;0.93;;
4957;SDS011;2494;51.872;9.688;2023-04-24T11:59:37;1.23;;;1.13;;
4957;SDS011;2494;51.872;9.688;2023-04-24T12:02:22;0.80;;;0.80;;
4957;SDS011;2494;51.872;9.688;2023-04-24T12:05:08;1.43;;;0.90;;
4957;SDS011;2494;51.872;9.688;2023-04-24T12:07:55;0.80;;;0.80;;
4957;SDS011;2494;51.872;9.688;2023-04-24T12:10:41;0.63;;;0.63;;
4957;SDS011;2494;51.872;9.688;2023-04-24T12:13:26;0.70;;;0.70;;
4957;SDS011;2494;51.872;9.688;2023-04-24T12:16:11;0.70;;;0.70;;
4957;SDS011;2494;51.872;9.688;2023-04-24T12:18:56;0.60;;;0.60;;
4957;SDS011;2494;51.872;9.688;2023-04-24T12:21:42;1.00;;;0.90;;
4957;SDS011;2494;51.872;9.688;2023-04-24T12:24:27;0.87;;;0.87;;
4957;SDS011;2494;51.872;9.688;2023-04-24T12:27:19;0.90;;;0.90;;
4957;SDS011;2494;51.872;9.688;2023-04-24T12:30:05;1.40;;;1.30;;
4957;SDS011;2494;51.872;9.688;2023-04-24T12:32:50;1.07;;;0.97;;
4957;SDS011;2494;51.872;9.688;2023-04-24T12:35:40;0.97;;;0.90;;
4957;SDS011;2494;51.872;9.688;2023-04-24T12:38:25;2.10;;;1.60;;
4957;SDS011;2494;51.872;9.688;2023-04-24T12:41:11;1.10;;;1.00;;
4957;SDS011;2494;51.872;9.688;2023-04-24T12:43:58;2.20;;;1.50;;
4957;SDS011;2494;51.872;9.688;2023-04-24T12:46:43;1.10;;;0.90;;
4957;SDS011;2494;51.872;9.688;2023-04-24T12:49:29;1.83;;;1.60;;
4957;SDS011;2494;51.872;9.688;2023-04-24T12:52:15;5.87;;;1.00;;
4957;SDS011;2494;51.872;9.688;2023-04-24T12:55:00;1.47;;;1.30;;
4957;SDS011;2494;51.872;9.688;2023-04-24T12:57:46;1.13;;;1.07;;
4957;SDS011;2494;51.872;9.688;2023-04-24T13:00:32;0.70;;;0.70;;
4957;SDS011;2494;51.872;9.688;2023-04-24T13:03:18;1.33;;;0.73;;
4957;SDS011;2494;51.872;9.688;2023-04-24T13:06:04;1.40;;;1.23;;
4957;SDS011;2494;51.872;9.688;2023-04-24T13:08:49;0.80;;;0.80;;
4957;SDS011;2494;51.872;9.688;2023-04-24T13:11:34;0.70;;;0.70;;
4957;SDS011;2494;51.872;9.688;2023-04-24T13:14:19;0.80;;;0.80;;
4957;SDS011;2494;51.872;9.688;2023-04-24T13:17:06;1.00;;;0.90;;
4957;SDS011;2494;51.872;9.688;2023-04-24T13:19:53;0.60;;;0.60;;
4957;SDS011;2494;51.872;9.688;2023-04-24T13:22:38;1.70;;;0.80;;
4957;SDS011;2494;51.872;9.688;2023-04-24T13:25:24;0.70;;;0.70;;
4957;SDS011;2494;51.872;9.688;2023-04-24T13:28:10;0.80;;;0.63;;
4957;SDS011;2494;51.872;9.688;2023-04-24T13:30:54;1.53;;;0.80;;
4957;SDS011;2494;51.872;9.688;2023-04-24T13:33:41;0.83;;;0.80;;
4957;SDS011;2494;51.872;9.688;2023-04-24T13:36:26;1.03;;;0.97;;
4957;SDS011;2494;51.872;9.688;2023-04-24T13:39:11;1.30;;;1.20;;
4957;SDS011;2494;51.872;9.688;2023-04-24T13:41:57;0.77;;;0.77;;
4957;SDS011;2494;51.872;9.688;2023-04-24T13:44:41;0.87;;;0.87;;
4957;SDS011;2494;51.872;9.688;2023-04-24T13:47:26;1.00;;;0.80;;
4957;SDS011;2494;51.872;9.688;2023-04-24T13:50:13;1.10;;;1.00;;
4957;SDS011;2494;51.872;9.688;2023-04-24T13:52:58;1.60;;;1.30;;
4957;SDS011;2494;51.872;9.688;2023-04-24T13:55:44;1.40;;;1.20;;
4957;SDS011;2494;51.872;9.688;2023-04-24T13:58:29;1.40;;;1.30;;
4957;SDS011;2494;51.872;9.688;2023-04-24T14:01:15;1.90;;;1.80;;
4957;SDS011;2494;51.872;9.688;2023-04-24T14:04:00;2.27;;;2.07;;
4957;SDS011;2494;51.872;9.688;2023-04-24T14:06:46;1.93;;;1.77;;
4957;SDS011;2494;51.872;9.688;2023-04-24T14:09:31;1.50;;;1.40;;
4957;SDS011;2494;51.872;9.688;2023-04-24T14:12:17;1.47;;;1.37;;
4957;SDS011;2494;51.872;9.688;2023-04-24T14:15:03;1.70;;;1.60;;
4957;SDS011;2494;51.872;9.688;2023-04-24T14:17:48;1.50;;;1.40;;
4957;SDS011;2494;51.872;9.688;2023-04-24T14:20:34;1.50;;;1.30;;
4957;SDS011;2494;51.872;9.688;2023-04-24T14:23:20;1.30;;;1.20;;
4957;SDS011;2494;51.872;9.688;2023-04-24T14:26:05;3.23;;;1.30;;
4957;SDS011;2494;51.872;9.688;2023-04-24T14:28:50;3.33;;;2.30;;
4957;SDS011;2494;51.872;9.688;2023-04-24T14:31:36;5.40;;;3.90;;
4957;SDS011;2494;51.872;9.688;2023-04-24T14:34:21;4.10;;;2.03;;
4957;SDS011;2494;51.872;9.688;2023-04-24T14:37:06;2.93;;;2.63;;
4957;SDS011;2494;51.872;9.688;2023-04-24T14:39:53;2.57;;;2.37;;
4957;SDS011;2494;51.872;9.688;2023-04-24T14:42:38;5.30;;;4.40;;
4957;SDS011;2494;51.872;9.688;2023-04-24T14:45:23;3.37;;;3.07;;
4957;SDS011;2494;51.872;9.688;2023-04-24T14:48:08;3.30;;;2.47;;
4957;SDS011;2494;51.872;9.688;2023-04-24T14:50:53;4.77;;;2.17;;
4957;SDS011;2494;51.872;9.688;2023-04-24T14:53:38;4.00;;;3.70;;
4957;SDS011;2494;51.872;9.688;2023-04-24T14:56:24;3.70;;;3.10;;
4957;SDS011;2494;51.872;9.688;2023-04-24T14:59:10;6.37;;;3.30;;
4957;SDS011;2494;51.872;9.688;2023-04-24T15:01:55;9.13;;;5.50;;
4957;SDS011;2494;51.872;9.688;2023-04-24T15:04:41;7.60;;;4.30;;
4957;SDS011;2494;51.872;9.688;2023-04-24T15:07:26;6.60;;;5.70;;
4957;SDS011;2494;51.872;9.688;2023-04-24T15:10:11;5.77;;;5.20;;
4957;SDS011;2494;51.872;9.688;2023-04-24T15:12:57;6.67;;;6.10;;
4957;SDS011;2494;51.872;9.688;2023-04-24T15:15:42;11.83;;;10.53;;
4957;SDS011;2494;51.872;9.688;2023-04-24T15:18:27;6.63;;;6.10;;
4957;SDS011;2494;51.872;9.688;2023-04-24T15:21:13;8.93;;;5.97;;
4957;SDS011;2494;51.872;9.688;2023-04-24T15:23:58;6.80;;;6.20;;
4957;SDS011;2494;51.872;9.688;2023-04-24T15:26:43;8.33;;;7.53;;
4957;SDS011;2494;51.872;9.688;2023-04-24T15:29:29;8.20;;;6.80;;
4957;SDS011;2494;51.872;9.688;2023-04-24T15:32:14;9.80;;;6.97;;
4957;SDS011;2494;51.872;9.688;2023-04-24T15:34:59;9.30;;;6.70;;
4957;SDS011;2494;51.872;9.688;2023-04-24T15:37:44;7.60;;;6.90;;
4957;SDS011;2494;51.872;9.688;2023-04-24T15:40:30;7.50;;;6.87;;
4957;SDS011;2494;51.872;9.688;2023-04-24T15:43:14;9.10;;;7.10;;
4957;SDS011;2494;51.872;9.688;2023-04-24T15:46:01;10.57;;;6.30;;
4957;SDS011;2494;51.872;9.688;2023-04-24T15:48:46;8.90;;;8.00;;
4957;SDS011;2494;51.872;9.688;2023-04-24T15:51:31;10.47;;;9.47;;
4957;SDS011;2494;51.872;9.688;2023-04-24T15:54:16;14.07;;;9.20;;
4957;SDS011;2494;51.872;9.688;2023-04-24T15:57:01;11.33;;;10.20;;
4957;SDS011;2494;51.872;9.688;2023-04-24T15:59:46;12.13;;;9.30;;
4957;SDS011;2494;51.872;9.688;2023-04-24T16:02:33;10.87;;;9.87;;
4957;SDS011;2494;51.872;9.688;2023-04-24T16:05:18;10.37;;;9.30;;
4957;SDS011;2494;51.872;9.688;2023-04-24T16:08:05;9.70;;;8.80;;
4957;SDS011;2494;51.872;9.688;2023-04-24T16:10:50;12.40;;;8.70;;
4957;SDS011;2494;51.872;9.688;2023-04-24T16:13:35;10.97;;;8.20;;
4957;SDS011;2494;51.872;9.688;2023-04-24T16:16:20;7.67;;;6.97;;
4957;SDS011;2494;51.872;9.688;2023-04-24T16:19:08;7.67;;;7.03;;
4957;SDS011;2494;51.872;9.688;2023-04-24T16:21:53;16.50;;;7.93;;
4957;SDS011;2494;51.872;9.688;2023-04-24T16:24:39;6.63;;;6.00;;
4957;SDS011;2494;51.872;9.688;2023-04-24T16:27:24;6.70;;;6.10;;
4957;SDS011;2494;51.872;9.688;2023-04-24T16:30:09;7.17;;;6.40;;
4957;SDS011;2494;51.872;9.688;2023-04-24T16:32:54;7.07;;;6.37;;
4957;SDS011;2494;51.872;9.688;2023-04-24T16:35:41;12.43;;;8.60;;
4957;SDS011;2494;51.872;9.688;2023-04-24T16:38:27;10.00;;;8.43;;
4957;SDS011;2494;51.872;9.688;2023-04-24T16:41:12;9.33;;;7.80;;
4957;SDS011;2494;51.872;9.688;2023-04-24T16:43:57;7.97;;;7.10;;
4957;SDS011;2494;51.872;9.688;2023-04-24T16:46:42;6.00;;;5.50;;
4957;SDS011;2494;51.872;9.688;2023-04-24T16:49:27;5.20;;;4.80;;
4957;SDS011;2494;51.872;9.688;2023-04-24T16:52:15;5.83;;;5.43;;
4957;SDS011;2494;51.872;9.688;2023-04-24T16:55:00;5.90;;;5.30;;
4957;SDS011;2494;51.872;9.688;2023-04-24T16:57:45;6.00;;;5.53;;
4957;SDS011;2494;51.872;9.688;2023-04-24T17:00:30;11.07;;;6.00;;
4957;SDS011;2494;51.872;9.688;2023-04-24T17:03:15;9.50;;;5.10;;
4957;SDS011;2494;51.872;9.688;2023-04-24T17:06:00;9.07;;;5.60;;
4957;SDS011;2494;51.872;9.688;2023-04-24T17:08:47;6.17;;;5.67;;